sensor_id;sensor_type;location;lat;lon;timestamp;temperature;humidity
67165;SHT31;54093;50.014;19.984;2023-04-02T00:05:36;9.50;81.93
67165;SHT31;54093;50.014;19.984;2023-04-02T00:15:11;9.54;81.48
67165;SHT31;54093;50.014;19.984;2023-04-02T00:24:32;9.53;81.43
67165;SHT31;54093;50.014;19.984;2023-04-02T00:33:54;9.57;81.23
67165;SHT31;54093;50.014;19.984;2023-04-02T00:43:15;9.46;81.72
67165;SHT31;54093;50.014;19.984;2023-04-02T00:52:37;9.43;82.30
67165;SHT31;54093;50.014;19.984;2023-04-02T01:12:02;9.49;81.99
67165;SHT31;54093;50.014;19.984;2023-04-02T01:31:22;9.50;81.76
67165;SHT31;54093;50.014;19.984;2023-04-02T01:40:52;9.50;81.23
67165;SHT31;54093;50.014;19.984;2023-04-02T01:59:39;9.66;80.02
67165;SHT31;54093;50.014;19.984;2023-04-02T02:09:02;9.70;79.49
67165;SHT31;54093;50.014;19.984;2023-04-02T02:18:25;9.66;79.82
67165;SHT31;54093;50.014;19.984;2023-04-02T02:28:18;9.63;79.28
67165;SHT31;54093;50.014;19.984;2023-04-02T02:37:42;9.56;79.17
67165;SHT31;54093;50.014;19.984;2023-04-02T02:47:10;9.54;78.81
67165;SHT31;54093;50.014;19.984;2023-04-02T02:56:35;9.49;78.55
67165;SHT31;54093;50.014;19.984;2023-04-02T03:06:02;9.47;78.35
67165;SHT31;54093;50.014;19.984;2023-04-02T03:15:56;9.46;78.29
67165;SHT31;54093;50.014;19.984;2023-04-02T03:25:34;9.49;78.01
67165;SHT31;54093;50.014;19.984;2023-04-02T03:35:04;9.49;78.10
67165;SHT31;54093;50.014;19.984;2023-04-02T03:44:43;9.44;77.81
67165;SHT31;54093;50.014;19.984;2023-04-02T03:54:09;9.44;77.85
67165;SHT31;54093;50.014;19.984;2023-04-02T04:13:03;9.25;78.30
67165;SHT31;54093;50.014;19.984;2023-04-02T04:22:27;9.15;78.56
67165;SHT31;54093;50.014;19.984;2023-04-02T04:31:52;9.14;78.41
67165;SHT31;54093;50.014;19.984;2023-04-02T04:41:17;9.09;78.53
67165;SHT31;54093;50.014;19.984;2023-04-02T04:50:48;9.14;77.96
67165;SHT31;54093;50.014;19.984;2023-04-02T05:00:18;9.16;77.90
67165;SHT31;54093;50.014;19.984;2023-04-02T05:09:53;9.23;77.83
67165;SHT31;54093;50.014;19.984;2023-04-02T05:19:24;9.15;78.01
67165;SHT31;54093;50.014;19.984;2023-04-02T05:28:55;9.09;77.69
67165;SHT31;54093;50.014;19.984;2023-04-02T05:38:27;9.07;77.63
67165;SHT31;54093;50.014;19.984;2023-04-02T05:47:50;9.05;77.64
67165;SHT31;54093;50.014;19.984;2023-04-02T05:57:16;9.08;78.23
67165;SHT31;54093;50.014;19.984;2023-04-02T06:16:05;8.87;78.82
67165;SHT31;54093;50.014;19.984;2023-04-02T06:25:30;8.95;79.16
67165;SHT31;54093;50.014;19.984;2023-04-02T06:34:53;8.93;79.76
67165;SHT31;54093;50.014;19.984;2023-04-02T06:44:21;8.91;79.75
67165;SHT31;54093;50.014;19.984;2023-04-02T06:53:48;8.99;79.95
67165;SHT31;54093;50.014;19.984;2023-04-02T07:03:27;9.04;79.79
67165;SHT31;54093;50.014;19.984;2023-04-02T07:12:48;9.04;80.54
67165;SHT31;54093;50.014;19.984;2023-04-02T07:22:09;9.14;80.88
67165;SHT31;54093;50.014;19.984;2023-04-02T07:31:30;9.20;80.75
67165;SHT31;54093;50.014;19.984;2023-04-02T07:40:51;9.14;80.05
67165;SHT31;54093;50.014;19.984;2023-04-02T07:50:12;9.14;79.25
67165;SHT31;54093;50.014;19.984;2023-04-02T07:59:33;9.15;78.34
67165;SHT31;54093;50.014;19.984;2023-04-02T08:08:54;9.07;78.01
67165;SHT31;54093;50.014;19.984;2023-04-02T08:18:16;9.02;77.87
67165;SHT31;54093;50.014;19.984;2023-04-02T08:27:37;8.97;77.46
67165;SHT31;54093;50.014;19.984;2023-04-02T08:36:58;8.99;77.57
67165;SHT31;54093;50.014;19.984;2023-04-02T08:46:30;8.85;77.96
67165;SHT31;54093;50.014;19.984;2023-04-02T08:55:56;8.33;78.65
67165;SHT31;54093;50.014;19.984;2023-04-02T09:05:32;7.67;79.59
67165;SHT31;54093;50.014;19.984;2023-04-02T09:24:34;7.20;80.51
67165;SHT31;54093;50.014;19.984;2023-04-02T09:33:57;7.14;79.85
67165;SHT31;54093;50.014;19.984;2023-04-02T09:43:19;7.26;79.27
67165;SHT31;54093;50.014;19.984;2023-04-02T09:52:41;7.22;79.92
67165;SHT31;54093;50.014;19.984;2023-04-02T10:02:02;7.09;79.72
67165;SHT31;54093;50.014;19.984;2023-04-02T10:11:33;6.88;79.99
67165;SHT31;54093;50.014;19.984;2023-04-02T10:20:54;6.82;79.47
67165;SHT31;54093;50.014;19.984;2023-04-02T10:30:23;6.64;80.14
67165;SHT31;54093;50.014;19.984;2023-04-02T10:39:54;6.62;81.00
67165;SHT31;54093;50.014;19.984;2023-04-02T10:59:20;7.06;80.34
67165;SHT31;54093;50.014;19.984;2023-04-02T11:08:46;7.02;79.02
67165;SHT31;54093;50.014;19.984;2023-04-02T11:18:22;7.00;79.15
67165;SHT31;54093;50.014;19.984;2023-04-02T11:27:50;7.07;79.25
67165;SHT31;54093;50.014;19.984;2023-04-02T11:37:35;6.97;78.72
67165;SHT31;54093;50.014;19.984;2023-04-02T11:47:21;6.99;78.13
67165;SHT31;54093;50.014;19.984;2023-04-02T11:56:48;6.82;77.20
67165;SHT31;54093;50.014;19.984;2023-04-02T12:15:49;6.68;78.03
67165;SHT31;54093;50.014;19.984;2023-04-02T12:34:48;6.62;78.02
67165;SHT31;54093;50.014;19.984;2023-04-02T12:44:15;6.61;78.01
67165;SHT31;54093;50.014;19.984;2023-04-02T12:53:39;6.59;78.52
67165;SHT31;54093;50.014;19.984;2023-04-02T13:03:17;6.56;79.04
67165;SHT31;54093;50.014;19.984;2023-04-02T13:12:41;6.56;79.15
67165;SHT31;54093;50.014;19.984;2023-04-02T13:22:29;6.55;78.79
67165;SHT31;54093;50.014;19.984;2023-04-02T13:32:05;6.55;79.25
67165;SHT31;54093;50.014;19.984;2023-04-02T13:41:40;6.46;78.96
67165;SHT31;54093;50.014;19.984;2023-04-02T13:51:01;6.44;78.92
67165;SHT31;54093;50.014;19.984;2023-04-02T14:00:23;6.42;79.09
67165;SHT31;54093;50.014;19.984;2023-04-02T14:29:18;6.52;79.08
67165;SHT31;54093;50.014;19.984;2023-04-02T14:48:56;6.46;78.81
67165;SHT31;54093;50.014;19.984;2023-04-02T14:58:33;6.42;78.24
67165;SHT31;54093;50.014;19.984;2023-04-02T15:08:25;6.35;78.26
67165;SHT31;54093;50.014;19.984;2023-04-02T15:17:47;6.27;77.77
67165;SHT31;54093;50.014;19.984;2023-04-02T15:56:23;5.90;77.83
67165;SHT31;54093;50.014;19.984;2023-04-02T16:06:06;5.90;79.01
67165;SHT31;54093;50.014;19.984;2023-04-02T16:15:57;5.92;78.23
67165;SHT31;54093;50.014;19.984;2023-04-02T16:25:23;5.72;78.25
67165;SHT31;54093;50.014;19.984;2023-04-02T16:54:07;5.63;78.78
67165;SHT31;54093;50.014;19.984;2023-04-02T17:22:19;5.62;78.62
67165;SHT31;54093;50.014;19.984;2023-04-02T17:31:41;5.55;77.33
67165;SHT31;54093;50.014;19.984;2023-04-02T18:10:34;5.23;77.82
67165;SHT31;54093;50.014;19.984;2023-04-02T18:30:07;5.06;77.02
67165;SHT31;54093;50.014;19.984;2023-04-02T18:40:02;5.01;76.65
67165;SHT31;54093;50.014;19.984;2023-04-02T18:49:40;4.93;76.44
67165;SHT31;54093;50.014;19.984;2023-04-02T19:09:12;4.97;77.84
67165;SHT31;54093;50.014;19.984;2023-04-02T19:19:00;4.94;77.74
67165;SHT31;54093;50.014;19.984;2023-04-02T19:38:16;4.90;77.49
67165;SHT31;54093;50.014;19.984;2023-04-02T19:47:38;4.89;78.11
67165;SHT31;54093;50.014;19.984;2023-04-02T19:56:59;4.84;78.12
67165;SHT31;54093;50.014;19.984;2023-04-02T20:06:20;4.81;77.85
67165;SHT31;54093;50.014;19.984;2023-04-02T20:15:42;4.81;77.73
67165;SHT31;54093;50.014;19.984;2023-04-02T20:25:03;4.70;77.83
67165;SHT31;54093;50.014;19.984;2023-04-02T20:34:24;4.58;77.69
67165;SHT31;54093;50.014;19.984;2023-04-02T20:43:45;4.48;78.13
67165;SHT31;54093;50.014;19.984;2023-04-02T20:53:06;4.46;78.87
67165;SHT31;54093;50.014;19.984;2023-04-02T21:02:27;4.50;79.01
67165;SHT31;54093;50.014;19.984;2023-04-02T21:11:48;4.37;78.44
67165;SHT31;54093;50.014;19.984;2023-04-02T21:21:10;4.29;77.84
67165;SHT31;54093;50.014;19.984;2023-04-02T21:30:33;4.27;79.02
67165;SHT31;54093;50.014;19.984;2023-04-02T21:39:54;4.24;78.76
67165;SHT31;54093;50.014;19.984;2023-04-02T21:49:17;4.12;79.38
67165;SHT31;54093;50.014;19.984;2023-04-02T21:58:39;4.08;79.13
67165;SHT31;54093;50.014;19.984;2023-04-02T22:08:00;4.10;79.40
67165;SHT31;54093;50.014;19.984;2023-04-02T22:17:21;4.12;79.09
67165;SHT31;54093;50.014;19.984;2023-04-02T22:26:42;4.07;79.97
67165;SHT31;54093;50.014;19.984;2023-04-02T22:36:04;4.00;79.70
67165;SHT31;54093;50.014;19.984;2023-04-02T22:45:25;3.91;79.51
67165;SHT31;54093;50.014;19.984;2023-04-02T22:54:46;3.86;79.70
67165;SHT31;54093;50.014;19.984;2023-04-02T23:04:07;3.77;79.93
67165;SHT31;54093;50.014;19.984;2023-04-02T23:13:29;3.79;80.09
67165;SHT31;54093;50.014;19.984;2023-04-02T23:22:50;3.79;80.32
67165;SHT31;54093;50.014;19.984;2023-04-02T23:32:11;3.76;80.23
67165;SHT31;54093;50.014;19.984;2023-04-02T23:41:32;3.79;80.40
67165;SHT31;54093;50.014;19.984;2023-04-02T23:50:52;3.66;79.78
